createdAt,value
2018-12-05T00:02:13.339Z,9.47
2018-12-05T00:04:40.028Z,9.57
2018-12-05T00:07:06.667Z,8.93
2018-12-05T00:09:33.409Z,9.70
2018-12-05T00:12:00.101Z,8.20
2018-12-05T00:14:27.820Z,8.43
2018-12-05T00:16:54.518Z,8.30
2018-12-05T00:19:21.137Z,9.00
2018-12-05T00:21:47.863Z,10.37
2018-12-05T00:24:14.506Z,10.70
2018-12-05T00:26:41.128Z,8.63
2018-12-05T00:29:07.903Z,9.53
2018-12-05T00:31:34.506Z,7.87
2018-12-05T00:34:01.115Z,10.10
2018-12-05T00:36:27.743Z,11.70
2018-12-05T00:38:54.253Z,11.80
2018-12-05T00:41:20.864Z,11.50
2018-12-05T00:43:47.722Z,10.47
2018-12-05T00:46:14.379Z,10.37
2018-12-05T00:48:41.085Z,9.87
2018-12-05T00:51:07.571Z,12.03
2018-12-05T00:53:34.137Z,9.60
2018-12-05T00:56:00.610Z,11.70
2018-12-05T00:58:27.331Z,10.67
2018-12-05T01:00:53.953Z,10.00
2018-12-05T01:03:20.687Z,10.40
2018-12-05T01:05:47.277Z,8.83
2018-12-05T01:08:13.803Z,9.73
2018-12-05T01:10:40.375Z,9.57
2018-12-05T01:13:06.882Z,9.90
2018-12-05T01:15:33.775Z,9.57
2018-12-05T01:18:00.562Z,10.53
2018-12-05T01:20:27.308Z,8.80
2018-12-05T01:22:53.947Z,9.57
2018-12-05T01:25:20.419Z,8.43
2018-12-05T01:27:47.042Z,9.30
2018-12-05T01:30:13.616Z,10.07
2018-12-05T01:32:40.428Z,8.83
2018-12-05T01:35:07.124Z,9.77
2018-12-05T01:37:33.718Z,9.97
2018-12-05T01:40:00.392Z,12.80
2018-12-05T01:42:26.981Z,9.87
2018-12-05T01:44:54.095Z,10.17
2018-12-05T01:47:20.771Z,10.10
2018-12-05T01:49:47.244Z,10.23
2018-12-05T01:52:13.947Z,9.37
2018-12-05T01:54:40.706Z,9.60
2018-12-05T01:57:07.441Z,9.80
2018-12-05T01:59:34.089Z,10.37
2018-12-05T02:02:00.849Z,10.57
2018-12-05T02:04:27.475Z,12.07
2018-12-05T02:06:54.175Z,11.50
2018-12-05T02:09:20.915Z,13.70
2018-12-05T02:11:47.533Z,13.40
2018-12-05T02:14:14.036Z,13.37
2018-12-05T02:16:40.835Z,13.57
2018-12-05T02:19:07.332Z,13.77
2018-12-05T02:21:34.022Z,12.20
2018-12-05T02:24:00.666Z,12.83
2018-12-05T02:26:27.291Z,13.30
2018-12-05T02:28:54.026Z,15.80
2018-12-05T02:31:20.891Z,13.80
2018-12-05T02:33:47.617Z,13.43
2018-12-05T02:36:14.262Z,13.27
2018-12-05T02:38:40.924Z,12.10
2018-12-05T02:41:07.402Z,14.93
2018-12-05T02:43:33.895Z,14.13
2018-12-05T02:46:00.646Z,17.00
2018-12-05T02:48:27.384Z,16.83
2018-12-05T02:50:54.011Z,16.73
2018-12-05T02:53:20.835Z,18.37
2018-12-05T02:55:47.586Z,15.57
2018-12-05T02:58:14.175Z,16.23
2018-12-05T03:00:40.780Z,16.93
2018-12-05T03:03:07.285Z,15.87
2018-12-05T03:05:33.917Z,15.47
2018-12-05T03:08:00.515Z,14.83
2018-12-05T03:10:27.099Z,15.30
2018-12-05T03:12:53.810Z,15.47
2018-12-05T03:15:20.495Z,16.27
2018-12-05T03:17:47.111Z,14.73
2018-12-05T03:20:13.699Z,14.30
2018-12-05T03:22:40.322Z,14.47
2018-12-05T03:25:06.968Z,15.10
2018-12-05T03:27:33.579Z,14.60
2018-12-05T03:30:00.181Z,14.03
2018-12-05T03:32:26.751Z,15.10
2018-12-05T03:34:53.367Z,15.40
2018-12-05T03:37:19.982Z,13.97
2018-12-05T03:39:46.470Z,14.37
2018-12-05T03:42:13.066Z,14.70
2018-12-05T03:44:39.674Z,14.63
2018-12-05T03:47:06.297Z,13.10
2018-12-05T03:49:32.916Z,16.47
2018-12-05T03:51:59.506Z,15.60
2018-12-05T03:54:26.357Z,14.30
2018-12-05T03:56:52.803Z,12.97
2018-12-05T03:59:19.399Z,13.97
2018-12-05T04:01:45.769Z,13.47
2018-12-05T04:04:12.481Z,15.87
2018-12-05T04:06:39.163Z,15.63
2018-12-05T04:09:05.776Z,15.97
2018-12-05T04:11:32.366Z,14.40
2018-12-05T04:13:58.838Z,14.53
2018-12-05T04:16:25.429Z,16.20
2018-12-05T04:18:51.937Z,13.37
2018-12-05T04:21:18.419Z,14.63
2018-12-05T04:23:44.930Z,13.43
2018-12-05T04:26:11.631Z,13.83
2018-12-05T04:28:38.338Z,15.83
2018-12-05T04:31:04.937Z,15.20
2018-12-05T04:33:31.545Z,13.83
2018-12-05T04:35:58.038Z,13.87
2018-12-05T04:38:24.515Z,14.07
2018-12-05T04:40:51.120Z,14.17
2018-12-05T04:43:17.514Z,13.03
2018-12-05T04:45:44.105Z,13.47
2018-12-05T04:48:10.646Z,12.77
2018-12-05T04:50:37.236Z,11.87
2018-12-05T04:53:03.811Z,11.83
2018-12-05T04:55:30.386Z,11.17
2018-12-05T04:57:57.079Z,11.60
2018-12-05T05:00:23.800Z,11.07
2018-12-05T05:02:50.334Z,11.90
2018-12-05T05:05:17.787Z,11.23
2018-12-05T05:07:44.608Z,15.13
2018-12-05T05:10:13.107Z,12.93
2018-12-05T05:12:39.799Z,13.50
2018-12-05T05:15:06.413Z,14.30
2018-12-05T05:17:32.917Z,15.97
2018-12-05T05:19:59.421Z,13.63
2018-12-05T05:22:25.898Z,17.33
2018-12-05T05:24:52.381Z,17.03
2018-12-05T05:27:18.967Z,17.43
2018-12-05T05:29:45.468Z,15.57
2018-12-05T05:32:11.934Z,14.83
2018-12-05T05:34:38.435Z,13.90
2018-12-05T05:37:05.023Z,14.57
2018-12-05T05:39:31.622Z,22.17
2018-12-05T05:41:58.130Z,15.23
2018-12-05T05:44:24.595Z,15.33
2018-12-05T05:46:51.097Z,14.20
2018-12-05T05:49:17.711Z,12.87
2018-12-05T05:51:44.321Z,14.47
2018-12-05T05:54:10.707Z,13.00
2018-12-05T05:56:37.451Z,13.80
2018-12-05T05:59:03.814Z,14.43
2018-12-05T06:01:30.426Z,13.03
2018-12-05T06:03:57.527Z,12.27
2018-12-05T06:06:23.902Z,10.13
2018-12-05T06:08:50.607Z,11.50
2018-12-05T06:11:17.201Z,11.77
2018-12-05T06:13:43.795Z,10.00
2018-12-05T06:16:10.295Z,11.33
2018-12-05T06:18:36.718Z,12.30
2018-12-05T06:21:03.302Z,11.87
2018-12-05T06:23:29.770Z,12.10
2018-12-05T06:25:56.276Z,12.03
2018-12-05T06:28:22.858Z,12.90
2018-12-05T06:30:49.447Z,13.57
2018-12-05T06:33:15.935Z,12.60
2018-12-05T06:35:42.315Z,11.80
2018-12-05T06:38:08.796Z,13.03
2018-12-05T06:40:35.388Z,13.07
2018-12-05T06:43:01.991Z,12.93
2018-12-05T06:45:28.476Z,12.53
2018-12-05T06:47:55.095Z,12.60
2018-12-05T06:50:21.678Z,12.90
2018-12-05T06:52:48.331Z,12.40
2018-12-05T06:55:14.843Z,11.77
2018-12-05T06:57:41.435Z,12.30
2018-12-05T07:00:08.232Z,12.00
2018-12-05T07:02:35.007Z,12.87
2018-12-05T07:05:01.414Z,12.63
2018-12-05T07:07:28.505Z,13.57
2018-12-05T07:09:54.990Z,12.33
2018-12-05T07:12:21.493Z,13.03
2018-12-05T07:14:47.967Z,12.60
2018-12-05T07:17:14.455Z,13.30
2018-12-05T07:19:40.947Z,13.13
2018-12-05T07:22:07.427Z,13.87
2018-12-05T07:24:34.128Z,12.87
2018-12-05T07:27:00.666Z,27.70
2018-12-05T07:29:27.259Z,24.87
2018-12-05T07:31:53.632Z,17.30
2018-12-05T07:34:20.002Z,16.63
2018-12-05T07:36:46.593Z,15.60
2018-12-05T07:39:13.192Z,14.47
2018-12-05T07:41:39.776Z,13.33
2018-12-05T07:44:06.258Z,13.03
2018-12-05T07:46:32.739Z,12.90
2018-12-05T07:48:59.287Z,13.47
2018-12-05T07:51:25.651Z,13.60
2018-12-05T07:53:52.242Z,13.23
2018-12-05T07:56:18.833Z,13.60
2018-12-05T07:58:45.219Z,15.20
2018-12-05T08:01:11.927Z,14.90
2018-12-05T08:03:38.422Z,15.13
2018-12-05T08:06:04.909Z,15.53
2018-12-05T08:08:31.689Z,14.77
2018-12-05T08:10:58.178Z,15.23
2018-12-05T08:13:24.664Z,14.57
2018-12-05T08:15:51.079Z,15.53
2018-12-05T08:18:17.549Z,18.37
2018-12-05T08:20:44.027Z,16.00
2018-12-05T08:23:10.414Z,13.53
2018-12-05T08:25:37.007Z,13.73
2018-12-05T08:28:03.479Z,15.63
2018-12-05T08:30:30.082Z,17.83
2018-12-05T08:32:56.442Z,18.30
2018-12-05T08:35:22.927Z,16.63
2018-12-05T08:37:49.527Z,14.60
2018-12-05T08:40:15.919Z,16.30
2018-12-05T08:42:42.506Z,13.23
2018-12-05T08:45:08.986Z,13.07
2018-12-05T08:47:35.498Z,14.57
2018-12-05T08:50:02.621Z,14.80
2018-12-05T08:52:29.114Z,15.87
2018-12-05T08:54:55.487Z,18.20
2018-12-05T08:57:21.855Z,15.17
2018-12-05T08:59:48.459Z,13.47
2018-12-05T09:02:15.049Z,12.53
2018-12-05T09:04:41.660Z,12.57
2018-12-05T09:07:08.157Z,11.73
2018-12-05T09:09:34.742Z,12.13
2018-12-05T09:12:01.429Z,11.23
2018-12-05T09:14:28.862Z,14.67
2018-12-05T09:16:55.451Z,10.83
2018-12-05T09:19:21.927Z,12.13
2018-12-05T09:21:48.434Z,11.70
2018-12-05T09:24:15.026Z,10.23
2018-12-05T09:26:41.627Z,10.23
2018-12-05T09:29:08.115Z,10.13
2018-12-05T09:31:34.595Z,8.80
2018-12-05T09:34:01.195Z,10.47
2018-12-05T09:36:27.696Z,10.20
2018-12-05T09:38:54.323Z,9.10
2018-12-05T09:41:20.804Z,8.33
2018-12-05T09:43:47.411Z,9.00
2018-12-05T09:46:13.908Z,8.13
2018-12-05T09:48:40.523Z,8.07
2018-12-05T09:51:06.998Z,8.43
2018-12-05T09:53:33.488Z,9.57
2018-12-05T09:56:00.095Z,8.63
2018-12-05T09:58:26.614Z,7.57
2018-12-05T10:00:53.190Z,8.00
2018-12-05T10:03:19.680Z,7.47
2018-12-05T10:05:46.171Z,6.77
2018-12-05T10:08:12.779Z,7.63
2018-12-05T10:10:39.265Z,6.77
2018-12-05T10:13:05.647Z,7.73
2018-12-05T10:15:32.120Z,7.13
2018-12-05T10:17:58.608Z,7.40
2018-12-05T10:20:25.095Z,6.50
2018-12-05T10:22:51.595Z,6.70
2018-12-05T10:25:18.080Z,6.40
2018-12-05T10:27:44.446Z,7.67
2018-12-05T10:30:11.187Z,6.70
2018-12-05T10:32:37.794Z,6.30
2018-12-05T10:35:04.421Z,5.90
2018-12-05T10:37:30.799Z,5.93
2018-12-05T10:39:57.159Z,6.03
2018-12-05T10:42:23.879Z,6.30
2018-12-05T10:44:50.466Z,6.33
2018-12-05T10:47:17.036Z,5.40
2018-12-05T10:49:43.653Z,5.53
2018-12-05T10:52:10.128Z,6.43
2018-12-05T10:54:36.627Z,6.40
2018-12-05T10:57:03.142Z,5.63
2018-12-05T10:59:29.624Z,6.70
2018-12-05T11:01:58.038Z,6.27
2018-12-05T11:04:26.560Z,6.10
2018-12-05T11:06:55.071Z,5.07
2018-12-05T11:09:23.478Z,5.63
2018-12-05T11:11:51.863Z,5.93
2018-12-05T11:14:20.302Z,5.00
2018-12-05T11:16:48.838Z,5.30
2018-12-05T11:19:17.369Z,5.37
2018-12-05T11:21:49.674Z,4.87
2018-12-05T11:24:16.283Z,5.40
2018-12-05T11:26:42.772Z,5.77
2018-12-05T11:29:09.239Z,5.20
2018-12-05T11:31:35.719Z,5.27
2018-12-05T11:34:02.204Z,5.20
2018-12-05T11:36:28.916Z,5.70
2018-12-05T11:38:55.642Z,11.93
2018-12-05T11:41:22.119Z,5.97
2018-12-05T11:43:48.726Z,5.57
2018-12-05T11:46:15.378Z,5.40
2018-12-05T11:48:41.989Z,5.10
2018-12-05T11:51:08.574Z,5.60
2018-12-05T11:53:34.944Z,4.83
2018-12-05T11:56:01.523Z,5.20
2018-12-05T11:58:28.136Z,5.87
2018-12-05T12:00:54.631Z,5.50
2018-12-05T12:03:21.229Z,5.93
2018-12-05T12:05:47.782Z,6.20
2018-12-05T12:08:14.331Z,6.60
2018-12-05T12:10:41.133Z,7.40
2018-12-05T12:13:08.039Z,7.63
2018-12-05T12:15:34.626Z,8.37
2018-12-05T12:18:01.097Z,7.90
2018-12-05T12:20:27.694Z,8.43
2018-12-05T12:22:54.198Z,7.83
2018-12-05T12:25:20.795Z,6.23
2018-12-05T12:27:47.385Z,5.93
2018-12-05T12:30:16.129Z,6.30
2018-12-05T12:32:42.488Z,7.07
2018-12-05T12:35:08.963Z,7.17
2018-12-05T12:37:35.550Z,6.57
2018-12-05T12:40:02.007Z,6.00
2018-12-05T12:42:28.384Z,6.17
2018-12-05T12:44:54.982Z,6.53
2018-12-05T12:47:21.458Z,6.33
2018-12-05T12:49:47.980Z,7.80
2018-12-05T12:52:14.695Z,6.57
2018-12-05T12:54:41.471Z,6.80
2018-12-05T12:57:08.071Z,7.13
2018-12-05T12:59:34.398Z,7.67
2018-12-05T13:02:00.871Z,7.03
2018-12-05T13:04:27.582Z,7.50
2018-12-05T13:06:54.090Z,7.77
2018-12-05T13:09:20.580Z,8.63
2018-12-05T13:11:47.089Z,7.80
2018-12-05T13:14:13.571Z,8.50
2018-12-05T13:16:40.082Z,7.23
2018-12-05T13:19:06.535Z,8.97
2018-12-05T13:21:33.150Z,7.37
2018-12-05T13:23:59.610Z,7.90
2018-12-05T13:26:26.213Z,7.47
2018-12-05T13:28:52.736Z,7.30
2018-12-05T13:31:19.238Z,7.87
2018-12-05T13:33:45.924Z,7.73
2018-12-05T13:36:12.402Z,7.40
2018-12-05T13:38:38.891Z,8.33
2018-12-05T13:41:05.632Z,7.30
2018-12-05T13:43:32.115Z,7.03
2018-12-05T13:45:58.642Z,7.27
2018-12-05T13:48:25.013Z,7.17
2018-12-05T13:50:51.553Z,6.80
2018-12-05T13:53:18.023Z,7.10
2018-12-05T13:55:44.629Z,6.70
2018-12-05T13:58:11.146Z,7.70
2018-12-05T14:00:37.861Z,6.90
2018-12-05T14:03:04.472Z,7.13
2018-12-05T14:05:30.969Z,7.53
2018-12-05T14:07:57.492Z,8.27
2018-12-05T14:10:23.978Z,6.97
2018-12-05T14:12:50.583Z,6.97
2018-12-05T14:15:17.292Z,6.40
2018-12-05T14:17:43.787Z,7.50
2018-12-05T14:20:10.277Z,6.87
2018-12-05T14:22:36.797Z,7.27
2018-12-05T14:25:03.263Z,6.83
2018-12-05T14:27:29.955Z,7.33
2018-12-05T14:29:56.559Z,6.73
2018-12-05T14:32:23.299Z,6.90
2018-12-05T14:34:49.956Z,7.13
2018-12-05T14:37:16.475Z,6.43
2018-12-05T14:39:42.963Z,6.47
2018-12-05T14:42:09.483Z,6.90
2018-12-05T14:44:36.081Z,7.73
2018-12-05T14:47:02.555Z,7.20
2018-12-05T14:49:29.078Z,7.33
2018-12-05T14:51:55.559Z,6.63
2018-12-05T14:54:22.140Z,6.63
2018-12-05T14:56:48.774Z,6.40
2018-12-05T14:59:15.314Z,7.40
2018-12-05T15:01:41.966Z,6.73
2018-12-05T15:04:08.576Z,6.50
2018-12-05T15:06:35.164Z,6.67
2018-12-05T15:09:02.143Z,6.83
2018-12-05T15:11:28.663Z,6.87
2018-12-05T15:13:55.147Z,6.67
2018-12-05T15:16:21.735Z,6.80
2018-12-05T15:18:48.403Z,6.57
2018-12-05T15:21:14.876Z,6.47
2018-12-05T15:23:41.369Z,7.17
2018-12-05T15:26:07.913Z,8.40
2018-12-05T15:28:34.655Z,10.90
2018-12-05T15:31:01.246Z,9.40
2018-12-05T15:33:27.599Z,8.10
2018-12-05T15:35:54.219Z,7.57
2018-12-05T15:38:20.812Z,8.57
2018-12-05T15:40:47.303Z,8.40
2018-12-05T15:43:13.814Z,8.50
2018-12-05T15:45:40.184Z,8.20
2018-12-05T15:48:06.663Z,9.20
2018-12-05T15:50:33.178Z,8.50
2018-12-05T15:52:59.651Z,8.37
2018-12-05T15:55:27.398Z,7.77
2018-12-05T15:57:54.103Z,7.27
2018-12-05T16:00:20.819Z,7.07
2018-12-05T16:02:47.212Z,8.97
2018-12-05T16:05:13.753Z,7.17
2018-12-05T16:07:40.285Z,8.87
2018-12-05T16:10:06.916Z,9.57
2018-12-05T16:12:33.435Z,9.30
2018-12-05T16:15:00.064Z,11.37
2018-12-05T16:17:26.783Z,10.80
2018-12-05T16:19:53.383Z,10.93
2018-12-05T16:22:19.892Z,11.83
2018-12-05T16:24:46.534Z,9.80
2018-12-05T16:27:12.912Z,10.17
2018-12-05T16:29:39.422Z,11.50
2018-12-05T16:32:06.152Z,11.07
2018-12-05T16:34:32.781Z,11.40
2018-12-05T16:36:59.316Z,11.60
2018-12-05T16:39:25.692Z,21.70
2018-12-05T16:41:52.172Z,17.97
2018-12-05T16:44:18.806Z,12.97
2018-12-05T16:46:46.366Z,13.53
2018-12-05T16:49:12.970Z,13.50
2018-12-05T16:51:39.500Z,12.57
2018-12-05T16:54:06.303Z,12.57
2018-12-05T16:56:32.908Z,11.50
2018-12-05T16:58:59.387Z,13.40
2018-12-05T17:01:25.876Z,12.17
2018-12-05T17:03:52.503Z,14.00
2018-12-05T17:06:19.026Z,12.07
2018-12-05T17:08:45.545Z,13.13
2018-12-05T17:11:12.027Z,11.83
2018-12-05T17:13:40.488Z,11.87
2018-12-05T17:16:06.863Z,11.10
2018-12-05T17:18:33.362Z,10.93
2018-12-05T17:20:59.844Z,11.10
2018-12-05T17:23:26.370Z,11.20
2018-12-05T17:25:52.975Z,11.30
2018-12-05T17:28:19.346Z,11.77
2018-12-05T17:30:45.855Z,12.73
2018-12-05T17:33:12.356Z,12.47
2018-12-05T17:35:38.955Z,11.87
2018-12-05T17:38:05.484Z,13.73
2018-12-05T17:40:32.019Z,13.53
2018-12-05T17:42:58.542Z,11.60
2018-12-05T17:45:25.136Z,12.27
2018-12-05T17:47:51.652Z,13.13
2018-12-05T17:50:18.151Z,13.57
2018-12-05T17:52:44.734Z,12.90
2018-12-05T17:55:11.334Z,13.97
2018-12-05T17:57:37.820Z,13.40
2018-12-05T18:00:04.627Z,14.73
2018-12-05T18:02:31.234Z,16.33
2018-12-05T18:04:57.856Z,16.83
2018-12-05T18:07:24.484Z,16.40
2018-12-05T18:09:51.088Z,15.50
2018-12-05T18:12:17.723Z,13.20
2018-12-05T18:14:44.092Z,15.47
2018-12-05T18:17:10.582Z,14.80
2018-12-05T18:19:37.183Z,13.87
2018-12-05T18:22:03.783Z,15.87
2018-12-05T18:24:30.279Z,15.50
2018-12-05T18:26:56.649Z,14.77
2018-12-05T18:29:23.027Z,14.57
2018-12-05T18:31:49.546Z,14.43
2018-12-05T18:34:16.151Z,14.73
2018-12-05T18:36:42.746Z,14.27
2018-12-05T18:39:09.160Z,16.07
2018-12-05T18:41:35.663Z,16.10
2018-12-05T18:44:02.144Z,15.43
2018-12-05T18:46:28.650Z,14.13
2018-12-05T18:48:55.269Z,14.47
2018-12-05T18:51:21.751Z,14.53
2018-12-05T18:53:48.244Z,15.60
2018-12-05T18:56:14.778Z,15.50
2018-12-05T18:58:41.289Z,15.37
2018-12-05T19:01:07.912Z,13.23
2018-12-05T19:03:34.395Z,13.13
2018-12-05T19:06:01.015Z,13.40
2018-12-05T19:08:34.063Z,13.53
2018-12-05T19:10:56.223Z,13.80
2018-12-05T19:13:22.928Z,13.67
2018-12-05T19:15:49.550Z,12.83
2018-12-05T19:18:16.032Z,11.60
2018-12-05T19:20:42.540Z,10.47
2018-12-05T19:23:08.956Z,11.90
2018-12-05T19:25:35.466Z,12.57
2018-12-05T19:28:01.957Z,12.07
2018-12-05T19:30:28.442Z,10.47
2018-12-05T19:32:54.939Z,10.70
2018-12-05T19:35:21.352Z,11.27
2018-12-05T19:37:47.880Z,10.10
2018-12-05T19:40:14.242Z,10.07
2018-12-05T19:42:40.614Z,9.87
2018-12-05T19:45:07.210Z,9.50
2018-12-05T19:47:33.755Z,8.97
2018-12-05T19:50:00.324Z,9.13
2018-12-05T19:52:26.835Z,9.87
2018-12-05T19:54:53.335Z,8.73
2018-12-05T19:57:19.711Z,8.90
2018-12-05T19:59:46.323Z,9.30
2018-12-05T20:02:12.839Z,8.33
2018-12-05T20:04:39.345Z,9.20
2018-12-05T20:07:06.070Z,8.70
2018-12-05T20:09:32.556Z,10.93
2018-12-05T20:11:59.268Z,10.27
2018-12-05T20:14:27.784Z,7.63
2018-12-05T20:16:54.291Z,9.53
2018-12-05T20:19:20.795Z,8.63
2018-12-05T20:21:47.267Z,8.00
2018-12-05T20:24:13.771Z,7.57
2018-12-05T20:26:40.399Z,7.27
2018-12-05T20:29:06.996Z,6.93
2018-12-05T20:31:33.470Z,7.00
2018-12-05T20:33:59.983Z,7.03
2018-12-05T20:36:26.452Z,7.27
2018-12-05T20:38:52.954Z,7.00
2018-12-05T20:41:19.681Z,8.03
2018-12-05T20:43:46.305Z,7.47
2018-12-05T20:46:12.791Z,6.67
2018-12-05T20:48:39.515Z,6.30
2018-12-05T20:51:06.027Z,6.40
2018-12-05T20:53:32.747Z,6.70
2018-12-05T20:55:59.188Z,7.90
2018-12-05T20:58:25.947Z,6.07
2018-12-05T21:00:52.423Z,6.83
2018-12-05T21:03:18.923Z,6.73
2018-12-05T21:05:45.408Z,6.57
2018-12-05T21:08:12.103Z,6.87
2018-12-05T21:10:38.910Z,6.83
2018-12-05T21:13:05.344Z,5.70
2018-12-05T21:15:31.715Z,6.13
2018-12-05T21:17:58.424Z,6.50
2018-12-05T21:20:24.976Z,6.63
2018-12-05T21:22:51.486Z,6.03
2018-12-05T21:25:18.087Z,5.67
2018-12-05T21:27:44.578Z,5.70
2018-12-05T21:30:11.182Z,5.23
2018-12-05T21:32:37.648Z,5.30
2018-12-05T21:35:04.250Z,5.07
2018-12-05T21:37:30.922Z,5.03
2018-12-05T21:39:57.572Z,5.27
2018-12-05T21:42:24.257Z,5.23
2018-12-05T21:44:50.961Z,5.33
2018-12-05T21:47:17.459Z,4.87
2018-12-05T21:49:44.070Z,5.23
2018-12-05T21:52:10.701Z,5.47
2018-12-05T21:54:37.329Z,5.30
2018-12-05T21:57:03.695Z,5.33
2018-12-05T21:59:30.242Z,5.70
2018-12-05T22:01:56.873Z,5.20
2018-12-05T22:04:23.599Z,5.43
2018-12-05T22:06:49.960Z,5.30
2018-12-05T22:09:16.371Z,5.30
2018-12-05T22:11:43.052Z,6.27
2018-12-05T22:14:09.567Z,5.00
2018-12-05T22:16:36.166Z,5.60
2018-12-05T22:19:03.825Z,5.00
2018-12-05T22:21:30.418Z,4.77
2018-12-05T22:23:58.104Z,4.90
2018-12-05T22:26:24.690Z,4.80
2018-12-05T22:28:51.276Z,4.50
2018-12-05T22:31:17.871Z,5.30
2018-12-05T22:33:44.592Z,5.17
2018-12-05T22:36:11.191Z,5.23
2018-12-05T22:38:37.548Z,4.90
2018-12-05T22:41:04.162Z,5.30
2018-12-05T22:43:30.750Z,5.17
2018-12-05T22:45:57.447Z,4.87
2018-12-05T22:48:24.326Z,5.87
2018-12-05T22:50:50.837Z,4.63
2018-12-05T22:53:17.222Z,4.47
2018-12-05T22:55:44.511Z,4.93
2018-12-05T22:58:10.997Z,4.60
2018-12-05T23:00:41.358Z,5.30
2018-12-05T23:03:07.967Z,4.80
2018-12-05T23:05:34.886Z,4.93
2018-12-05T23:08:01.266Z,5.20
2018-12-05T23:10:27.938Z,4.73
2018-12-05T23:12:54.730Z,4.27
2018-12-05T23:15:21.191Z,4.17
2018-12-05T23:17:47.790Z,5.17
2018-12-05T23:20:14.243Z,4.43
2018-12-05T23:22:40.960Z,4.60
2018-12-05T23:25:07.323Z,3.97
2018-12-05T23:27:33.923Z,4.97
2018-12-05T23:30:00.619Z,5.03
2018-12-05T23:32:26.979Z,4.30
2018-12-05T23:34:53.463Z,5.10
2018-12-05T23:37:19.818Z,4.57
2018-12-05T23:39:46.301Z,4.70
2018-12-05T23:42:12.899Z,4.47
2018-12-05T23:44:39.494Z,5.20
2018-12-05T23:47:06.072Z,4.80
2018-12-05T23:49:32.432Z,4.90
2018-12-05T23:51:59.038Z,5.20
2018-12-05T23:54:25.633Z,5.03
2018-12-05T23:56:53.433Z,4.90
2018-12-05T23:59:20.138Z,4.97
